sensor_id;sensor_type;location;lat;lon;timestamp;P1;durP1;ratioP1;P2;durP2;ratioP2
77581;SDS011;66726;52.388;9.986;2023-03-21T00:00:54;36.83;;;28.83;;
77581;SDS011;66726;52.388;9.986;2023-03-21T00:03:30;40.90;;;28.80;;
77581;SDS011;66726;52.388;9.986;2023-03-21T00:06:06;39.07;;;28.20;;
77581;SDS011;66726;52.388;9.986;2023-03-21T00:08:40;36.23;;;28.50;;
77581;SDS011;66726;52.388;9.986;2023-03-21T00:11:11;36.83;;;28.73;;
77581;SDS011;66726;52.388;9.986;2023-03-21T00:13:45;38.70;;;28.17;;
77581;SDS011;66726;52.388;9.986;2023-03-21T00:16:18;40.13;;;29.00;;
77581;SDS011;66726;52.388;9.986;2023-03-21T00:18:56;34.60;;;27.17;;
77581;SDS011;66726;52.388;9.986;2023-03-21T00:21:31;36.00;;;27.67;;
77581;SDS011;66726;52.388;9.986;2023-03-21T00:24:20;40.93;;;28.40;;
77581;SDS011;66726;52.388;9.986;2023-03-21T00:26:52;43.50;;;29.60;;
77581;SDS011;66726;52.388;9.986;2023-03-21T00:29:45;33.60;;;26.73;;
77581;SDS011;66726;52.388;9.986;2023-03-21T00:32:19;43.13;;;29.33;;
77581;SDS011;66726;52.388;9.986;2023-03-21T00:34:51;37.77;;;27.50;;
77581;SDS011;66726;52.388;9.986;2023-03-21T00:37:42;35.83;;;28.30;;
77581;SDS011;66726;52.388;9.986;2023-03-21T00:40:14;33.97;;;27.37;;
77581;SDS011;66726;52.388;9.986;2023-03-21T00:42:58;35.73;;;28.60;;
77581;SDS011;66726;52.388;9.986;2023-03-21T00:45:31;39.10;;;29.67;;
77581;SDS011;66726;52.388;9.986;2023-03-21T00:48:03;38.23;;;28.63;;
77581;SDS011;66726;52.388;9.986;2023-03-21T00:50:35;40.50;;;30.13;;
77581;SDS011;66726;52.388;9.986;2023-03-21T00:53:10;37.77;;;28.83;;
77581;SDS011;66726;52.388;9.986;2023-03-21T00:55:43;36.30;;;29.07;;
77581;SDS011;66726;52.388;9.986;2023-03-21T00:58:15;37.53;;;28.57;;
77581;SDS011;66726;52.388;9.986;2023-03-21T01:00:48;38.30;;;29.00;;
77581;SDS011;66726;52.388;9.986;2023-03-21T01:03:20;38.27;;;29.67;;
77581;SDS011;66726;52.388;9.986;2023-03-21T01:05:54;42.43;;;29.00;;
77581;SDS011;66726;52.388;9.986;2023-03-21T01:08:30;39.73;;;30.07;;
77581;SDS011;66726;52.388;9.986;2023-03-21T01:11:18;40.00;;;30.40;;
77581;SDS011;66726;52.388;9.986;2023-03-21T01:13:53;40.13;;;30.47;;
77581;SDS011;66726;52.388;9.986;2023-03-21T01:16:47;39.17;;;29.10;;
77581;SDS011;66726;52.388;9.986;2023-03-21T01:19:20;40.00;;;30.53;;
77581;SDS011;66726;52.388;9.986;2023-03-21T01:22:13;43.20;;;30.80;;
77581;SDS011;66726;52.388;9.986;2023-03-21T01:24:46;40.30;;;29.87;;
77581;SDS011;66726;52.388;9.986;2023-03-21T01:27:28;43.27;;;31.13;;
77581;SDS011;66726;52.388;9.986;2023-03-21T01:30:00;38.83;;;29.67;;
77581;SDS011;66726;52.388;9.986;2023-03-21T01:32:45;42.73;;;32.07;;
77581;SDS011;66726;52.388;9.986;2023-03-21T01:35:17;41.47;;;29.90;;
77581;SDS011;66726;52.388;9.986;2023-03-21T01:37:50;43.03;;;31.50;;
77581;SDS011;66726;52.388;9.986;2023-03-21T01:40:22;41.00;;;31.13;;
77581;SDS011;66726;52.388;9.986;2023-03-21T01:42:56;40.70;;;29.20;;
77581;SDS011;66726;52.388;9.986;2023-03-21T01:48:49;44.33;;;31.10;;
77581;SDS011;66726;52.388;9.986;2023-03-21T01:51:25;42.57;;;32.10;;
77581;SDS011;66726;52.388;9.986;2023-03-21T01:54:01;43.07;;;31.47;;
77581;SDS011;66726;52.388;9.986;2023-03-21T01:56:35;42.07;;;31.60;;
77581;SDS011;66726;52.388;9.986;2023-03-21T01:59:11;41.20;;;31.63;;
77581;SDS011;66726;52.388;9.986;2023-03-21T02:01:51;41.50;;;31.47;;
77581;SDS011;66726;52.388;9.986;2023-03-21T02:04:28;42.03;;;31.90;;
77581;SDS011;66726;52.388;9.986;2023-03-21T02:07:03;39.63;;;30.67;;
77581;SDS011;66726;52.388;9.986;2023-03-21T02:09:41;43.97;;;31.27;;
77581;SDS011;66726;52.388;9.986;2023-03-21T02:12:18;42.60;;;33.53;;
77581;SDS011;66726;52.388;9.986;2023-03-21T02:14:52;40.93;;;31.50;;
77581;SDS011;66726;52.388;9.986;2023-03-21T02:17:26;45.50;;;32.27;;
77581;SDS011;66726;52.388;9.986;2023-03-21T02:23:22;40.20;;;30.67;;
77581;SDS011;66726;52.388;9.986;2023-03-21T02:29:40;41.60;;;29.83;;
77581;SDS011;66726;52.388;9.986;2023-03-21T02:33:19;38.43;;;29.97;;
77581;SDS011;66726;52.388;9.986;2023-03-21T02:36:25;42.07;;;31.97;;
77581;SDS011;66726;52.388;9.986;2023-03-21T02:39:13;40.20;;;30.57;;
77581;SDS011;66726;52.388;9.986;2023-03-21T02:41:58;42.40;;;31.47;;
77581;SDS011;66726;52.388;9.986;2023-03-21T02:44:39;44.67;;;32.00;;
77581;SDS011;66726;52.388;9.986;2023-03-21T02:47:18;40.60;;;31.77;;
77581;SDS011;66726;52.388;9.986;2023-03-21T02:49:55;42.87;;;30.10;;
77581;SDS011;66726;52.388;9.986;2023-03-21T02:52:36;38.77;;;29.87;;
77581;SDS011;66726;52.388;9.986;2023-03-21T02:55:12;36.60;;;29.40;;
77581;SDS011;66726;52.388;9.986;2023-03-21T02:57:51;39.50;;;28.30;;
77581;SDS011;66726;52.388;9.986;2023-03-21T03:00:37;38.30;;;28.20;;
77581;SDS011;66726;52.388;9.986;2023-03-21T03:03:10;35.77;;;26.77;;
77581;SDS011;66726;52.388;9.986;2023-03-21T03:05:59;38.27;;;27.77;;
77581;SDS011;66726;52.388;9.986;2023-03-21T03:08:44;40.37;;;27.80;;
77581;SDS011;66726;52.388;9.986;2023-03-21T03:11:32;33.87;;;26.67;;
77581;SDS011;66726;52.388;9.986;2023-03-21T03:14:21;37.43;;;27.77;;
77581;SDS011;66726;52.388;9.986;2023-03-21T03:17:34;40.50;;;27.17;;
77581;SDS011;66726;52.388;9.986;2023-03-21T03:20:20;36.80;;;27.73;;
77581;SDS011;66726;52.388;9.986;2023-03-21T03:23:00;34.40;;;27.07;;
77581;SDS011;66726;52.388;9.986;2023-03-21T03:25:41;36.00;;;26.77;;
77581;SDS011;66726;52.388;9.986;2023-03-21T03:28:23;33.87;;;26.43;;
77581;SDS011;66726;52.388;9.986;2023-03-21T03:31:02;35.67;;;25.60;;
77581;SDS011;66726;52.388;9.986;2023-03-21T03:33:38;36.63;;;26.43;;
77581;SDS011;66726;52.388;9.986;2023-03-21T03:36:14;39.47;;;27.90;;
77581;SDS011;66726;52.388;9.986;2023-03-21T03:38:57;35.07;;;25.80;;
77581;SDS011;66726;52.388;9.986;2023-03-21T03:41:37;33.00;;;25.70;;
77581;SDS011;66726;52.388;9.986;2023-03-21T03:44:37;39.53;;;26.73;;
77581;SDS011;66726;52.388;9.986;2023-03-21T03:47:10;37.77;;;26.77;;
77581;SDS011;66726;52.388;9.986;2023-03-21T03:50:01;37.93;;;26.90;;
77581;SDS011;66726;52.388;9.986;2023-03-21T03:52:45;33.50;;;25.53;;
77581;SDS011;66726;52.388;9.986;2023-03-21T03:55:26;36.67;;;25.57;;
77581;SDS011;66726;52.388;9.986;2023-03-21T03:58:03;39.77;;;26.20;;
77581;SDS011;66726;52.388;9.986;2023-03-21T04:00:46;32.73;;;25.97;;
77581;SDS011;66726;52.388;9.986;2023-03-21T04:03:19;36.77;;;26.73;;
77581;SDS011;66726;52.388;9.986;2023-03-21T04:05:51;37.60;;;25.33;;
77581;SDS011;66726;52.388;9.986;2023-03-21T04:08:23;34.30;;;25.03;;
77581;SDS011;66726;52.388;9.986;2023-03-21T04:10:55;36.93;;;26.00;;
77581;SDS011;66726;52.388;9.986;2023-03-21T04:13:29;39.17;;;26.40;;
77581;SDS011;66726;52.388;9.986;2023-03-21T04:16:02;34.03;;;25.83;;
77581;SDS011;66726;52.388;9.986;2023-03-21T04:18:34;48.23;;;27.80;;
77581;SDS011;66726;52.388;9.986;2023-03-21T04:21:07;34.33;;;24.80;;
77581;SDS011;66726;52.388;9.986;2023-03-21T04:23:40;37.30;;;25.10;;
77581;SDS011;66726;52.388;9.986;2023-03-21T04:26:12;31.77;;;24.60;;
77581;SDS011;66726;52.388;9.986;2023-03-21T04:28:47;34.97;;;25.17;;
77581;SDS011;66726;52.388;9.986;2023-03-21T04:31:19;32.90;;;24.70;;
77581;SDS011;66726;52.388;9.986;2023-03-21T04:33:52;32.80;;;26.00;;
77581;SDS011;66726;52.388;9.986;2023-03-21T04:36:24;34.10;;;26.13;;
77581;SDS011;66726;52.388;9.986;2023-03-21T04:39:04;36.17;;;26.73;;
77581;SDS011;66726;52.388;9.986;2023-03-21T04:41:38;35.23;;;26.40;;
77581;SDS011;66726;52.388;9.986;2023-03-21T04:44:13;36.57;;;27.00;;
77581;SDS011;66726;52.388;9.986;2023-03-21T04:46:47;35.40;;;26.63;;
77581;SDS011;66726;52.388;9.986;2023-03-21T04:49:18;32.43;;;26.13;;
77581;SDS011;66726;52.388;9.986;2023-03-21T04:51:51;33.60;;;25.13;;
77581;SDS011;66726;52.388;9.986;2023-03-21T04:54:22;35.97;;;27.10;;
77581;SDS011;66726;52.388;9.986;2023-03-21T04:56:54;34.90;;;25.70;;
77581;SDS011;66726;52.388;9.986;2023-03-21T04:59:27;39.13;;;27.03;;
77581;SDS011;66726;52.388;9.986;2023-03-21T05:01:59;36.67;;;27.07;;
77581;SDS011;66726;52.388;9.986;2023-03-21T05:04:31;35.17;;;26.33;;
77581;SDS011;66726;52.388;9.986;2023-03-21T05:07:03;36.60;;;27.87;;
77581;SDS011;66726;52.388;9.986;2023-03-21T05:09:35;39.10;;;28.60;;
77581;SDS011;66726;52.388;9.986;2023-03-21T05:12:07;31.77;;;25.97;;
77581;SDS011;66726;52.388;9.986;2023-03-21T05:14:40;42.47;;;29.17;;
77581;SDS011;66726;52.388;9.986;2023-03-21T05:17:12;38.77;;;27.97;;
77581;SDS011;66726;52.388;9.986;2023-03-21T05:19:48;38.33;;;27.67;;
77581;SDS011;66726;52.388;9.986;2023-03-21T05:22:21;38.47;;;26.50;;
77581;SDS011;66726;52.388;9.986;2023-03-21T05:24:54;34.57;;;27.03;;
77581;SDS011;66726;52.388;9.986;2023-03-21T05:27:25;36.53;;;26.97;;
77581;SDS011;66726;52.388;9.986;2023-03-21T05:30:04;33.87;;;25.90;;
77581;SDS011;66726;52.388;9.986;2023-03-21T05:32:42;34.20;;;26.67;;
77581;SDS011;66726;52.388;9.986;2023-03-21T05:35:15;38.33;;;26.83;;
77581;SDS011;66726;52.388;9.986;2023-03-21T05:37:46;39.90;;;27.67;;
77581;SDS011;66726;52.388;9.986;2023-03-21T05:40:19;36.27;;;27.27;;
77581;SDS011;66726;52.388;9.986;2023-03-21T05:42:51;33.17;;;26.47;;
77581;SDS011;66726;52.388;9.986;2023-03-21T05:45:24;38.17;;;27.70;;
77581;SDS011;66726;52.388;9.986;2023-03-21T05:47:56;35.10;;;26.60;;
77581;SDS011;66726;52.388;9.986;2023-03-21T05:50:27;33.37;;;26.60;;
77581;SDS011;66726;52.388;9.986;2023-03-21T05:52:59;36.43;;;26.33;;
77581;SDS011;66726;52.388;9.986;2023-03-21T05:55:32;32.30;;;26.97;;
77581;SDS011;66726;52.388;9.986;2023-03-21T05:58:04;32.90;;;25.70;;
77581;SDS011;66726;52.388;9.986;2023-03-21T06:00:38;32.57;;;25.37;;
77581;SDS011;66726;52.388;9.986;2023-03-21T06:03:09;33.33;;;26.00;;
77581;SDS011;66726;52.388;9.986;2023-03-21T06:05:41;31.23;;;24.97;;
77581;SDS011;66726;52.388;9.986;2023-03-21T06:08:13;34.70;;;26.40;;
77581;SDS011;66726;52.388;9.986;2023-03-21T06:10:45;32.57;;;25.23;;
77581;SDS011;66726;52.388;9.986;2023-03-21T06:13:17;35.97;;;27.27;;
77581;SDS011;66726;52.388;9.986;2023-03-21T06:15:50;37.33;;;26.33;;
77581;SDS011;66726;52.388;9.986;2023-03-21T06:18:22;37.67;;;26.70;;
77581;SDS011;66726;52.388;9.986;2023-03-21T06:20:54;32.80;;;26.17;;
77581;SDS011;66726;52.388;9.986;2023-03-21T06:23:26;36.83;;;26.90;;
77581;SDS011;66726;52.388;9.986;2023-03-21T06:25:58;35.40;;;27.00;;
77581;SDS011;66726;52.388;9.986;2023-03-21T06:28:30;37.70;;;26.83;;
77581;SDS011;66726;52.388;9.986;2023-03-21T06:31:04;35.40;;;26.17;;
77581;SDS011;66726;52.388;9.986;2023-03-21T06:33:37;34.63;;;25.83;;
77581;SDS011;66726;52.388;9.986;2023-03-21T06:36:08;30.47;;;23.97;;
77581;SDS011;66726;52.388;9.986;2023-03-21T06:38:41;35.57;;;24.07;;
77581;SDS011;66726;52.388;9.986;2023-03-21T06:41:14;35.80;;;24.93;;
77581;SDS011;66726;52.388;9.986;2023-03-21T06:43:46;31.33;;;24.63;;
77581;SDS011;66726;52.388;9.986;2023-03-21T06:46:19;36.80;;;25.10;;
77581;SDS011;66726;52.388;9.986;2023-03-21T06:48:51;34.83;;;25.13;;
77581;SDS011;66726;52.388;9.986;2023-03-21T06:51:22;34.43;;;24.40;;
77581;SDS011;66726;52.388;9.986;2023-03-21T06:53:54;33.47;;;24.83;;
77581;SDS011;66726;52.388;9.986;2023-03-21T06:56:26;31.73;;;24.10;;
77581;SDS011;66726;52.388;9.986;2023-03-21T06:58:58;33.33;;;24.83;;
77581;SDS011;66726;52.388;9.986;2023-03-21T07:01:31;34.23;;;24.43;;
77581;SDS011;66726;52.388;9.986;2023-03-21T07:04:04;34.17;;;24.67;;
77581;SDS011;66726;52.388;9.986;2023-03-21T07:06:36;34.50;;;24.90;;
77581;SDS011;66726;52.388;9.986;2023-03-21T07:09:07;32.03;;;25.50;;
77581;SDS011;66726;52.388;9.986;2023-03-21T07:11:39;35.40;;;25.30;;
77581;SDS011;66726;52.388;9.986;2023-03-21T07:14:11;35.33;;;26.27;;
77581;SDS011;66726;52.388;9.986;2023-03-21T07:16:44;31.70;;;24.33;;
77581;SDS011;66726;52.388;9.986;2023-03-21T07:19:16;31.70;;;24.07;;
77581;SDS011;66726;52.388;9.986;2023-03-21T07:21:48;33.57;;;24.13;;
77581;SDS011;66726;52.388;9.986;2023-03-21T07:24:23;34.70;;;24.90;;
77581;SDS011;66726;52.388;9.986;2023-03-21T07:26:54;31.93;;;23.17;;
77581;SDS011;66726;52.388;9.986;2023-03-21T07:29:26;33.13;;;22.60;;
77581;SDS011;66726;52.388;9.986;2023-03-21T07:31:59;31.80;;;23.30;;
77581;SDS011;66726;52.388;9.986;2023-03-21T07:34:31;34.30;;;21.97;;
77581;SDS011;66726;52.388;9.986;2023-03-21T07:37:03;30.90;;;22.77;;
77581;SDS011;66726;52.388;9.986;2023-03-21T07:39:38;29.00;;;20.77;;
77581;SDS011;66726;52.388;9.986;2023-03-21T07:42:10;31.77;;;21.17;;
77581;SDS011;66726;52.388;9.986;2023-03-21T07:44:41;29.63;;;21.20;;
77581;SDS011;66726;52.388;9.986;2023-03-21T07:47:15;29.77;;;19.53;;
77581;SDS011;66726;52.388;9.986;2023-03-21T07:49:46;31.00;;;20.43;;
77581;SDS011;66726;52.388;9.986;2023-03-21T07:52:18;27.40;;;20.37;;
77581;SDS011;66726;52.388;9.986;2023-03-21T07:54:50;28.07;;;19.80;;
77581;SDS011;66726;52.388;9.986;2023-03-21T07:57:22;27.20;;;19.47;;
77581;SDS011;66726;52.388;9.986;2023-03-21T07:59:54;29.03;;;19.03;;
77581;SDS011;66726;52.388;9.986;2023-03-21T08:02:27;29.07;;;20.57;;
77581;SDS011;66726;52.388;9.986;2023-03-21T08:04:59;28.90;;;19.27;;
77581;SDS011;66726;52.388;9.986;2023-03-21T08:07:31;29.97;;;20.53;;
77581;SDS011;66726;52.388;9.986;2023-03-21T08:10:03;27.00;;;18.50;;
77581;SDS011;66726;52.388;9.986;2023-03-21T08:12:37;26.83;;;18.97;;
77581;SDS011;66726;52.388;9.986;2023-03-21T08:15:09;28.27;;;19.93;;
77581;SDS011;66726;52.388;9.986;2023-03-21T08:17:43;27.33;;;18.77;;
77581;SDS011;66726;52.388;9.986;2023-03-21T08:20:16;31.47;;;18.10;;
77581;SDS011;66726;52.388;9.986;2023-03-21T08:22:49;27.60;;;18.00;;
77581;SDS011;66726;52.388;9.986;2023-03-21T08:25:21;31.07;;;17.10;;
77581;SDS011;66726;52.388;9.986;2023-03-21T08:27:53;28.80;;;17.57;;
77581;SDS011;66726;52.388;9.986;2023-03-21T08:30:26;24.47;;;17.00;;
77581;SDS011;66726;52.388;9.986;2023-03-21T08:33:00;29.90;;;18.23;;
77581;SDS011;66726;52.388;9.986;2023-03-21T08:35:32;29.17;;;18.10;;
77581;SDS011;66726;52.388;9.986;2023-03-21T08:38:06;25.60;;;17.30;;
77581;SDS011;66726;52.388;9.986;2023-03-21T08:40:38;23.93;;;17.87;;
77581;SDS011;66726;52.388;9.986;2023-03-21T08:43:10;28.40;;;17.80;;
77581;SDS011;66726;52.388;9.986;2023-03-21T08:45:42;28.87;;;17.63;;
77581;SDS011;66726;52.388;9.986;2023-03-21T08:48:15;27.27;;;17.63;;
77581;SDS011;66726;52.388;9.986;2023-03-21T08:50:47;27.50;;;16.70;;
77581;SDS011;66726;52.388;9.986;2023-03-21T08:53:18;28.40;;;17.20;;
77581;SDS011;66726;52.388;9.986;2023-03-21T08:55:50;25.47;;;16.67;;
77581;SDS011;66726;52.388;9.986;2023-03-21T08:58:22;25.27;;;16.27;;
77581;SDS011;66726;52.388;9.986;2023-03-21T09:00:54;28.87;;;18.50;;
77581;SDS011;66726;52.388;9.986;2023-03-21T09:03:27;27.13;;;18.63;;
77581;SDS011;66726;52.388;9.986;2023-03-21T09:05:59;26.17;;;17.93;;
77581;SDS011;66726;52.388;9.986;2023-03-21T09:08:31;26.33;;;17.63;;
77581;SDS011;66726;52.388;9.986;2023-03-21T09:11:05;28.53;;;17.03;;
77581;SDS011;66726;52.388;9.986;2023-03-21T09:13:38;30.07;;;16.67;;
77581;SDS011;66726;52.388;9.986;2023-03-21T09:16:10;24.93;;;17.10;;
77581;SDS011;66726;52.388;9.986;2023-03-21T09:18:44;26.93;;;15.93;;
77581;SDS011;66726;52.388;9.986;2023-03-21T09:21:21;29.97;;;17.57;;
77581;SDS011;66726;52.388;9.986;2023-03-21T09:23:55;24.70;;;17.00;;
77581;SDS011;66726;52.388;9.986;2023-03-21T09:26:28;29.97;;;17.33;;
77581;SDS011;66726;52.388;9.986;2023-03-21T09:28:59;29.50;;;17.40;;
77581;SDS011;66726;52.388;9.986;2023-03-21T09:31:34;28.63;;;17.20;;
77581;SDS011;66726;52.388;9.986;2023-03-21T09:34:10;28.27;;;17.60;;
77581;SDS011;66726;52.388;9.986;2023-03-21T09:36:43;30.67;;;17.00;;
77581;SDS011;66726;52.388;9.986;2023-03-21T09:39:16;27.83;;;18.17;;
77581;SDS011;66726;52.388;9.986;2023-03-21T09:44:58;25.07;;;16.83;;
77581;SDS011;66726;52.388;9.986;2023-03-21T09:47:42;25.60;;;16.77;;
77581;SDS011;66726;52.388;9.986;2023-03-21T09:50:21;27.80;;;17.20;;
77581;SDS011;66726;52.388;9.986;2023-03-21T09:53:02;25.77;;;16.40;;
77581;SDS011;66726;52.388;9.986;2023-03-21T09:55:43;25.77;;;17.27;;
77581;SDS011;66726;52.388;9.986;2023-03-21T09:58:21;25.43;;;16.97;;
77581;SDS011;66726;52.388;9.986;2023-03-21T10:00:59;24.40;;;16.03;;
77581;SDS011;66726;52.388;9.986;2023-03-21T10:03:47;30.40;;;16.80;;
77581;SDS011;66726;52.388;9.986;2023-03-21T10:06:22;26.80;;;15.80;;
77581;SDS011;66726;52.388;9.986;2023-03-21T10:08:57;23.20;;;14.77;;
77581;SDS011;66726;52.388;9.986;2023-03-21T10:11:37;24.97;;;15.23;;
77581;SDS011;66726;52.388;9.986;2023-03-21T10:14:17;27.03;;;15.03;;
77581;SDS011;66726;52.388;9.986;2023-03-21T10:16:57;23.60;;;14.23;;
77581;SDS011;66726;52.388;9.986;2023-03-21T10:19:39;23.33;;;14.37;;
77581;SDS011;66726;52.388;9.986;2023-03-21T10:22:14;32.43;;;15.03;;
77581;SDS011;66726;52.388;9.986;2023-03-21T10:24:46;23.87;;;14.23;;
77581;SDS011;66726;52.388;9.986;2023-03-21T10:27:18;25.63;;;14.33;;
77581;SDS011;66726;52.388;9.986;2023-03-21T10:29:51;26.43;;;14.03;;
77581;SDS011;66726;52.388;9.986;2023-03-21T10:32:22;27.60;;;14.27;;
77581;SDS011;66726;52.388;9.986;2023-03-21T10:34:55;25.50;;;13.97;;
77581;SDS011;66726;52.388;9.986;2023-03-21T10:37:31;22.60;;;13.80;;
77581;SDS011;66726;52.388;9.986;2023-03-21T10:40:05;29.53;;;13.83;;
77581;SDS011;66726;52.388;9.986;2023-03-21T10:42:43;22.73;;;13.63;;
77581;SDS011;66726;52.388;9.986;2023-03-21T10:45:16;23.40;;;13.57;;
77581;SDS011;66726;52.388;9.986;2023-03-21T10:47:50;25.63;;;12.73;;
77581;SDS011;66726;52.388;9.986;2023-03-21T10:50:23;22.63;;;13.10;;
77581;SDS011;66726;52.388;9.986;2023-03-21T10:53:01;19.43;;;12.00;;
77581;SDS011;66726;52.388;9.986;2023-03-21T10:55:44;26.60;;;13.47;;
77581;SDS011;66726;52.388;9.986;2023-03-21T10:58:24;20.70;;;13.57;;
77581;SDS011;66726;52.388;9.986;2023-03-21T11:01:05;20.97;;;12.93;;
77581;SDS011;66726;52.388;9.986;2023-03-21T11:03:41;23.33;;;13.37;;
77581;SDS011;66726;52.388;9.986;2023-03-21T11:06:15;25.57;;;13.33;;
77581;SDS011;66726;52.388;9.986;2023-03-21T11:09:00;20.00;;;13.67;;
77581;SDS011;66726;52.388;9.986;2023-03-21T11:11:40;22.47;;;12.70;;
77581;SDS011;66726;52.388;9.986;2023-03-21T11:14:26;28.40;;;15.83;;
77581;SDS011;66726;52.388;9.986;2023-03-21T11:17:06;21.37;;;13.63;;
77581;SDS011;66726;52.388;9.986;2023-03-21T11:19:47;22.03;;;13.43;;
77581;SDS011;66726;52.388;9.986;2023-03-21T11:22:23;23.93;;;13.63;;
77581;SDS011;66726;52.388;9.986;2023-03-21T11:25:07;21.60;;;12.50;;
77581;SDS011;66726;52.388;9.986;2023-03-21T11:27:51;21.17;;;12.87;;
77581;SDS011;66726;52.388;9.986;2023-03-21T11:30:26;21.97;;;13.10;;
77581;SDS011;66726;52.388;9.986;2023-03-21T11:32:59;22.70;;;12.97;;
77581;SDS011;66726;52.388;9.986;2023-03-21T11:35:35;20.27;;;12.67;;
77581;SDS011;66726;52.388;9.986;2023-03-21T11:38:09;22.33;;;13.20;;
77581;SDS011;66726;52.388;9.986;2023-03-21T11:40:58;25.53;;;14.87;;
77581;SDS011;66726;52.388;9.986;2023-03-21T11:43:34;20.00;;;11.70;;
77581;SDS011;66726;52.388;9.986;2023-03-21T11:46:07;20.17;;;13.10;;
77581;SDS011;66726;52.388;9.986;2023-03-21T11:48:42;25.23;;;13.30;;
77581;SDS011;66726;52.388;9.986;2023-03-21T11:51:18;21.37;;;13.33;;
77581;SDS011;66726;52.388;9.986;2023-03-21T11:53:57;19.87;;;12.47;;
77581;SDS011;66726;52.388;9.986;2023-03-21T11:56:39;17.53;;;11.53;;
77581;SDS011;66726;52.388;9.986;2023-03-21T11:59:26;20.63;;;13.17;;
77581;SDS011;66726;52.388;9.986;2023-03-21T12:02:23;25.40;;;13.73;;
77581;SDS011;66726;52.388;9.986;2023-03-21T12:05:22;21.73;;;13.23;;
77581;SDS011;66726;52.388;9.986;2023-03-21T12:08:01;20.13;;;12.63;;
77581;SDS011;66726;52.388;9.986;2023-03-21T12:10:47;18.73;;;12.57;;
77581;SDS011;66726;52.388;9.986;2023-03-21T12:13:34;22.10;;;13.17;;
77581;SDS011;66726;52.388;9.986;2023-03-21T12:16:20;22.53;;;13.27;;
77581;SDS011;66726;52.388;9.986;2023-03-21T12:19:07;20.93;;;12.67;;
77581;SDS011;66726;52.388;9.986;2023-03-21T12:21:51;20.90;;;13.37;;
77581;SDS011;66726;52.388;9.986;2023-03-21T12:24:31;23.73;;;14.23;;
77581;SDS011;66726;52.388;9.986;2023-03-21T12:27:14;24.47;;;14.03;;
77581;SDS011;66726;52.388;9.986;2023-03-21T12:30:01;22.07;;;14.83;;
77581;SDS011;66726;52.388;9.986;2023-03-21T12:32:57;19.63;;;13.93;;
77581;SDS011;66726;52.388;9.986;2023-03-21T12:35:42;24.17;;;15.53;;
77581;SDS011;66726;52.388;9.986;2023-03-21T12:38:27;23.87;;;14.70;;
77581;SDS011;66726;52.388;9.986;2023-03-21T12:41:15;23.00;;;15.63;;
77581;SDS011;66726;52.388;9.986;2023-03-21T12:43:53;23.93;;;15.47;;
77581;SDS011;66726;52.388;9.986;2023-03-21T12:46:33;27.97;;;15.10;;
77581;SDS011;66726;52.388;9.986;2023-03-21T12:49:12;22.83;;;14.77;;
77581;SDS011;66726;52.388;9.986;2023-03-21T12:51:54;23.97;;;14.90;;
77581;SDS011;66726;52.388;9.986;2023-03-21T12:54:33;28.40;;;15.47;;
77581;SDS011;66726;52.388;9.986;2023-03-21T12:57:11;23.17;;;15.17;;
77581;SDS011;66726;52.388;9.986;2023-03-21T12:59:53;25.80;;;16.10;;
77581;SDS011;66726;52.388;9.986;2023-03-21T13:02:39;24.97;;;15.33;;
77581;SDS011;66726;52.388;9.986;2023-03-21T13:05:16;27.17;;;16.10;;
77581;SDS011;66726;52.388;9.986;2023-03-21T13:07:55;26.77;;;16.53;;
77581;SDS011;66726;52.388;9.986;2023-03-21T13:10:36;28.13;;;16.93;;
77581;SDS011;66726;52.388;9.986;2023-03-21T13:13:12;26.23;;;16.80;;
77581;SDS011;66726;52.388;9.986;2023-03-21T13:15:58;23.93;;;15.10;;
77581;SDS011;66726;52.388;9.986;2023-03-21T13:18:46;23.57;;;15.07;;
77581;SDS011;66726;52.388;9.986;2023-03-21T13:21:30;23.07;;;15.03;;
77581;SDS011;66726;52.388;9.986;2023-03-21T13:24:23;23.37;;;15.83;;
77581;SDS011;66726;52.388;9.986;2023-03-21T13:26:57;25.50;;;16.27;;
77581;SDS011;66726;52.388;9.986;2023-03-21T13:29:33;25.37;;;16.73;;
77581;SDS011;66726;52.388;9.986;2023-03-21T13:32:20;23.03;;;15.27;;
77581;SDS011;66726;52.388;9.986;2023-03-21T13:35:00;28.33;;;16.63;;
77581;SDS011;66726;52.388;9.986;2023-03-21T13:37:48;23.83;;;15.43;;
77581;SDS011;66726;52.388;9.986;2023-03-21T13:40:24;27.23;;;17.10;;
77581;SDS011;66726;52.388;9.986;2023-03-21T13:43:22;26.77;;;15.73;;
77581;SDS011;66726;52.388;9.986;2023-03-21T13:46:05;25.80;;;16.70;;
77581;SDS011;66726;52.388;9.986;2023-03-21T13:48:40;26.17;;;17.17;;
77581;SDS011;66726;52.388;9.986;2023-03-21T13:51:43;25.67;;;17.07;;
77581;SDS011;66726;52.388;9.986;2023-03-21T13:54:26;29.43;;;18.00;;
77581;SDS011;66726;52.388;9.986;2023-03-21T13:57:19;25.53;;;17.53;;
77581;SDS011;66726;52.388;9.986;2023-03-21T14:00:15;28.70;;;17.83;;
77581;SDS011;66726;52.388;9.986;2023-03-21T14:02:51;27.70;;;17.37;;
77581;SDS011;66726;52.388;9.986;2023-03-21T14:05:23;25.83;;;16.07;;
77581;SDS011;66726;52.388;9.986;2023-03-21T14:07:59;24.13;;;17.53;;
77581;SDS011;66726;52.388;9.986;2023-03-21T14:10:51;25.30;;;17.30;;
77581;SDS011;66726;52.388;9.986;2023-03-21T14:13:26;28.10;;;17.97;;
77581;SDS011;66726;52.388;9.986;2023-03-21T14:16:04;29.27;;;18.37;;
77581;SDS011;66726;52.388;9.986;2023-03-21T14:18:42;30.73;;;18.03;;
77581;SDS011;66726;52.388;9.986;2023-03-21T14:21:22;30.50;;;18.67;;
77581;SDS011;66726;52.388;9.986;2023-03-21T14:23:58;28.83;;;18.77;;
77581;SDS011;66726;52.388;9.986;2023-03-21T14:26:33;30.03;;;19.47;;
77581;SDS011;66726;52.388;9.986;2023-03-21T14:29:13;32.00;;;16.90;;
77581;SDS011;66726;52.388;9.986;2023-03-21T14:31:52;32.90;;;18.77;;
77581;SDS011;66726;52.388;9.986;2023-03-21T14:34:27;28.87;;;18.73;;
77581;SDS011;66726;52.388;9.986;2023-03-21T14:37:05;26.67;;;17.67;;
77581;SDS011;66726;52.388;9.986;2023-03-21T14:39:40;25.17;;;16.47;;
77581;SDS011;66726;52.388;9.986;2023-03-21T14:42:25;26.77;;;18.50;;
77581;SDS011;66726;52.388;9.986;2023-03-21T14:45:10;31.20;;;22.73;;
77581;SDS011;66726;52.388;9.986;2023-03-21T14:47:53;35.27;;;25.43;;
77581;SDS011;66726;52.388;9.986;2023-03-21T14:50:23;28.97;;;19.70;;
77581;SDS011;66726;52.388;9.986;2023-03-21T14:53:03;30.60;;;19.80;;
77581;SDS011;66726;52.388;9.986;2023-03-21T14:55:41;27.37;;;17.83;;
77581;SDS011;66726;52.388;9.986;2023-03-21T14:58:20;24.70;;;15.80;;
77581;SDS011;66726;52.388;9.986;2023-03-21T15:00:53;25.53;;;18.03;;
77581;SDS011;66726;52.388;9.986;2023-03-21T15:03:30;28.13;;;16.77;;
77581;SDS011;66726;52.388;9.986;2023-03-21T15:06:03;26.73;;;18.00;;
77581;SDS011;66726;52.388;9.986;2023-03-21T15:08:52;26.40;;;17.73;;
77581;SDS011;66726;52.388;9.986;2023-03-21T15:11:29;27.53;;;17.57;;
77581;SDS011;66726;52.388;9.986;2023-03-21T15:14:04;23.90;;;16.43;;
77581;SDS011;66726;52.388;9.986;2023-03-21T15:16:40;23.70;;;15.90;;
77581;SDS011;66726;52.388;9.986;2023-03-21T15:19:13;25.17;;;16.43;;
77581;SDS011;66726;52.388;9.986;2023-03-21T15:21:51;24.63;;;16.13;;
77581;SDS011;66726;52.388;9.986;2023-03-21T15:24:32;22.63;;;15.53;;
77581;SDS011;66726;52.388;9.986;2023-03-21T15:27:11;20.43;;;13.87;;
77581;SDS011;66726;52.388;9.986;2023-03-21T15:29:46;21.53;;;14.60;;
77581;SDS011;66726;52.388;9.986;2023-03-21T15:32:22;17.63;;;13.07;;